createdAt,value
2023-05-16T00:00:35.075Z,9.65
2023-05-16T00:03:03.385Z,9.60
2023-05-16T00:05:30.320Z,9.55
2023-05-16T00:07:56.917Z,9.49
2023-05-16T00:10:23.887Z,9.48
2023-05-16T00:12:53.634Z,9.46
2023-05-16T00:15:20.396Z,9.43
2023-05-16T00:17:47.275Z,9.43
2023-05-16T00:20:17.214Z,9.41
2023-05-16T00:22:44.029Z,9.38
2023-05-16T00:25:10.426Z,9.36
2023-05-16T00:27:37.000Z,9.28
2023-05-16T00:30:04.038Z,9.22
2023-05-16T00:32:31.794Z,9.17
2023-05-16T00:34:58.606Z,9.14
2023-05-16T00:37:25.009Z,9.08
2023-05-16T00:39:51.422Z,9.04
2023-05-16T00:42:20.970Z,8.98
2023-05-16T00:44:48.583Z,8.93
2023-05-16T00:47:15.096Z,8.87
2023-05-16T00:49:41.936Z,8.83
2023-05-16T00:52:08.464Z,8.80
2023-05-16T00:54:34.966Z,8.79
2023-05-16T00:57:01.917Z,8.74
2023-05-16T00:59:28.350Z,8.70
2023-05-16T01:01:55.979Z,8.68
2023-05-16T01:04:22.654Z,8.65
2023-05-16T01:06:49.111Z,8.65
2023-05-16T01:09:15.899Z,8.61
2023-05-16T01:11:51.432Z,8.59
2023-05-16T01:14:36.196Z,8.52
2023-05-16T01:17:17.737Z,8.49
2023-05-16T01:20:17.164Z,8.44
2023-05-16T01:23:00.226Z,8.42
2023-05-16T01:25:45.403Z,8.38
2023-05-16T01:28:15.891Z,8.36
2023-05-16T01:30:42.309Z,8.35
2023-05-16T01:33:09.832Z,8.32
2023-05-16T01:36:25.930Z,8.29
2023-05-16T01:39:09.633Z,8.25
2023-05-16T01:42:03.625Z,8.22
2023-05-16T01:44:43.796Z,8.19
2023-05-16T01:47:13.789Z,8.16
2023-05-16T01:49:46.373Z,8.13
2023-05-16T01:52:19.325Z,8.11
2023-05-16T01:54:48.306Z,8.08
2023-05-16T01:57:16.211Z,8.04
2023-05-16T01:59:44.531Z,8.01
2023-05-16T02:02:10.965Z,7.97
2023-05-16T02:04:37.498Z,7.95
2023-05-16T02:07:04.167Z,7.91
2023-05-16T02:09:30.596Z,7.88
2023-05-16T02:11:56.926Z,7.87
2023-05-16T02:14:25.806Z,7.84
2023-05-16T02:16:52.383Z,7.83
2023-05-16T02:19:19.077Z,7.81
2023-05-16T02:21:45.695Z,7.79
2023-05-16T02:24:12.097Z,7.77
2023-05-16T02:26:38.560Z,7.74
2023-05-16T02:29:05.739Z,7.72
2023-05-16T02:31:34.102Z,7.70
2023-05-16T02:34:01.346Z,7.67
2023-05-16T02:36:28.148Z,7.65
2023-05-16T02:38:54.659Z,7.65
2023-05-16T02:41:22.532Z,7.64
2023-05-16T02:43:49.470Z,7.60
2023-05-16T02:46:34.597Z,7.58
2023-05-16T02:49:01.836Z,7.56
2023-05-16T02:51:28.942Z,7.54
2023-05-16T02:54:00.015Z,7.51
2023-05-16T02:56:26.660Z,7.51
2023-05-16T02:58:54.761Z,7.49
2023-05-16T03:01:21.297Z,7.47
2023-05-16T03:03:47.912Z,7.48
2023-05-16T03:06:14.406Z,7.45
2023-05-16T03:08:40.817Z,7.42
2023-05-16T03:11:07.224Z,7.39
2023-05-16T03:13:33.979Z,7.37
2023-05-16T03:16:01.063Z,7.34
2023-05-16T03:18:27.639Z,7.33
2023-05-16T03:20:54.087Z,7.31
2023-05-16T03:23:21.302Z,7.28
2023-05-16T03:25:48.225Z,7.24
2023-05-16T03:28:15.928Z,7.19
2023-05-16T03:30:42.480Z,7.15
2023-05-16T03:33:09.080Z,7.15
2023-05-16T03:35:36.528Z,7.11
2023-05-16T03:38:03.225Z,7.11
2023-05-16T03:40:30.873Z,7.10
2023-05-16T03:42:57.401Z,7.08
2023-05-16T03:45:24.011Z,7.05
2023-05-16T03:47:50.955Z,7.03
2023-05-16T03:50:17.884Z,7.03
2023-05-16T03:52:44.722Z,7.00
2023-05-16T03:55:14.172Z,6.98
2023-05-16T03:57:42.261Z,6.96
2023-05-16T04:00:11.003Z,6.97
2023-05-16T04:02:37.618Z,6.96
2023-05-16T04:05:04.594Z,6.94
2023-05-16T04:07:31.069Z,6.94
2023-05-16T04:09:58.959Z,6.94
2023-05-16T04:12:25.385Z,6.93
2023-05-16T04:14:51.793Z,6.92
2023-05-16T04:17:18.186Z,6.90
2023-05-16T04:19:44.570Z,6.90
2023-05-16T04:22:11.061Z,6.87
2023-05-16T04:24:37.520Z,6.88
2023-05-16T04:27:04.936Z,6.89
2023-05-16T04:29:32.311Z,6.89
2023-05-16T04:31:58.816Z,6.90
2023-05-16T04:34:27.843Z,6.91
2023-05-16T04:36:55.210Z,6.91
2023-05-16T04:39:21.853Z,6.95
2023-05-16T04:41:48.243Z,6.96
2023-05-16T04:44:14.645Z,6.97
2023-05-16T04:46:41.583Z,6.99
2023-05-16T04:49:08.304Z,7.02
2023-05-16T04:51:34.870Z,7.05
2023-05-16T04:54:01.268Z,7.08
2023-05-16T04:56:27.637Z,7.11
2023-05-16T04:58:54.608Z,7.17
2023-05-16T05:01:21.024Z,7.20
2023-05-16T05:03:48.441Z,7.24
2023-05-16T05:06:14.982Z,7.28
2023-05-16T05:08:41.403Z,7.31
2023-05-16T05:11:07.856Z,7.34
2023-05-16T05:13:34.245Z,7.40
2023-05-16T05:16:02.084Z,7.44
2023-05-16T05:18:28.574Z,7.50
2023-05-16T05:20:55.189Z,7.57
2023-05-16T05:23:21.942Z,7.63
2023-05-16T05:25:48.483Z,7.73
2023-05-16T05:28:15.044Z,7.80
2023-05-16T05:30:43.223Z,7.89
2023-05-16T05:33:11.946Z,7.98
2023-05-16T05:35:38.400Z,8.08
2023-05-16T05:38:04.856Z,8.19
2023-05-16T05:40:31.760Z,8.24
2023-05-16T05:42:58.140Z,8.27
2023-05-16T05:45:24.702Z,8.31
2023-05-16T05:47:51.362Z,8.37
2023-05-16T05:50:17.958Z,8.43
2023-05-16T05:52:44.601Z,8.48
2023-05-16T05:55:11.099Z,8.51
2023-05-16T05:57:37.724Z,8.56
2023-05-16T06:00:05.276Z,8.64
2023-05-16T06:02:32.245Z,8.67
2023-05-16T06:04:58.802Z,8.74
2023-05-16T06:07:25.389Z,9.06
2023-05-16T06:09:52.120Z,11.09
2023-05-16T06:12:18.625Z,12.87
2023-05-16T06:14:45.041Z,13.79
2023-05-16T06:17:11.534Z,14.41
2023-05-16T06:19:38.160Z,15.14
2023-05-16T06:22:04.764Z,15.04
2023-05-16T06:24:31.749Z,15.09
2023-05-16T06:26:58.204Z,15.21
2023-05-16T06:29:24.712Z,15.10
2023-05-16T06:31:51.173Z,14.92
2023-05-16T06:34:17.605Z,14.26
2023-05-16T06:36:44.685Z,14.01
2023-05-16T06:39:11.115Z,13.52
2023-05-16T06:41:37.538Z,13.35
2023-05-16T06:44:05.031Z,12.72
2023-05-16T06:46:32.747Z,13.48
2023-05-16T06:48:59.426Z,13.12
2023-05-16T06:51:25.850Z,12.39
2023-05-16T06:53:52.264Z,11.95
2023-05-16T06:56:18.736Z,11.70
2023-05-16T06:58:45.263Z,11.85
2023-05-16T07:01:11.772Z,11.83
2023-05-16T07:03:38.390Z,12.01
2023-05-16T07:06:04.865Z,12.15
2023-05-16T07:08:31.635Z,12.27
2023-05-16T07:10:58.016Z,12.48
2023-05-16T07:13:24.434Z,12.54
2023-05-16T07:15:51.086Z,12.62
2023-05-16T07:18:17.543Z,12.44
2023-05-16T07:20:43.993Z,12.55
2023-05-16T07:23:10.521Z,12.84
2023-05-16T07:25:37.180Z,13.15
2023-05-16T07:28:03.707Z,12.92
2023-05-16T07:30:30.690Z,12.70
2023-05-16T07:32:57.432Z,12.78
2023-05-16T07:35:23.967Z,12.96
2023-05-16T07:37:50.526Z,13.20
2023-05-16T07:40:18.463Z,13.00
2023-05-16T07:42:44.943Z,13.32
2023-05-16T07:45:11.423Z,13.71
2023-05-16T07:47:37.980Z,13.36
2023-05-16T07:50:04.768Z,13.00
2023-05-16T07:52:31.545Z,13.00
2023-05-16T07:54:58.427Z,12.83
2023-05-16T07:57:25.410Z,13.16
2023-05-16T07:59:52.512Z,13.36
2023-05-16T08:02:19.743Z,13.23
2023-05-16T08:04:46.932Z,12.75
2023-05-16T08:07:13.608Z,12.43
2023-05-16T08:09:40.282Z,12.04
2023-05-16T08:12:07.239Z,11.81
2023-05-16T08:14:33.863Z,11.63
2023-05-16T08:17:00.760Z,11.60
2023-05-16T08:19:27.683Z,12.03
2023-05-16T08:21:54.214Z,12.52
2023-05-16T08:24:20.778Z,13.10
2023-05-16T08:26:47.352Z,13.51
2023-05-16T08:29:14.156Z,13.73
2023-05-16T08:31:40.862Z,14.13
2023-05-16T08:34:07.431Z,14.62
2023-05-16T08:36:35.582Z,15.03
2023-05-16T08:39:02.147Z,15.26
2023-05-16T08:41:29.414Z,14.97
2023-05-16T08:43:56.081Z,14.30
2023-05-16T08:46:23.931Z,13.95
2023-05-16T08:48:54.454Z,13.91
2023-05-16T08:51:21.551Z,13.64
2023-05-16T08:53:56.962Z,13.48
2023-05-16T08:56:25.070Z,14.14
2023-05-16T08:58:55.047Z,14.77
2023-05-16T09:01:22.919Z,15.08
2023-05-16T09:03:51.012Z,15.34
2023-05-16T09:06:17.877Z,15.65
2023-05-16T09:08:44.757Z,15.89
2023-05-16T09:11:11.224Z,16.01
2023-05-16T09:13:39.340Z,16.17
2023-05-16T09:16:13.366Z,16.64
2023-05-16T09:18:41.670Z,15.92
2023-05-16T09:21:10.432Z,15.56
2023-05-16T09:23:37.502Z,16.12
2023-05-16T09:26:07.988Z,16.55
2023-05-16T09:28:37.135Z,16.78
2023-05-16T09:31:03.822Z,16.84
2023-05-16T09:33:30.654Z,17.10
2023-05-16T09:35:59.414Z,17.10
2023-05-16T09:38:28.715Z,17.10
2023-05-16T09:40:55.562Z,16.96
2023-05-16T09:43:26.121Z,17.15
2023-05-16T09:45:53.335Z,17.38
2023-05-16T09:48:21.328Z,16.98
2023-05-16T09:50:53.317Z,16.52
2023-05-16T09:53:30.871Z,16.18
2023-05-16T09:56:10.488Z,15.89
2023-05-16T09:58:39.094Z,15.49
2023-05-16T10:01:07.264Z,15.59
2023-05-16T10:03:38.992Z,16.04
2023-05-16T10:06:06.939Z,16.23
2023-05-16T10:08:36.476Z,16.10
2023-05-16T10:11:04.931Z,15.66
2023-05-16T10:13:33.971Z,15.39
2023-05-16T10:16:06.025Z,15.87
2023-05-16T10:18:32.725Z,16.36
2023-05-16T10:21:05.782Z,16.70
2023-05-16T10:23:33.572Z,16.65
2023-05-16T10:26:03.499Z,16.70
2023-05-16T10:28:30.122Z,16.15
2023-05-16T10:30:57.935Z,15.97
2023-05-16T10:33:24.598Z,15.69
2023-05-16T10:35:51.396Z,15.68
2023-05-16T10:38:19.854Z,15.69
2023-05-16T10:40:48.087Z,15.83
2023-05-16T10:43:25.233Z,16.14
2023-05-16T10:46:11.583Z,16.07
2023-05-16T10:48:41.164Z,16.04
2023-05-16T10:51:33.425Z,15.87
2023-05-16T10:54:07.566Z,15.83
2023-05-16T10:56:35.198Z,16.04
2023-05-16T10:59:02.373Z,16.05
2023-05-16T11:01:32.313Z,16.13
2023-05-16T11:04:04.540Z,15.70
2023-05-16T11:06:32.715Z,15.55
2023-05-16T11:09:11.596Z,16.04
2023-05-16T11:11:53.377Z,15.86
2023-05-16T11:14:20.065Z,15.61
2023-05-16T11:17:00.423Z,15.59
2023-05-16T11:19:32.839Z,15.81
2023-05-16T11:22:11.919Z,15.86
2023-05-16T11:24:39.617Z,15.71
2023-05-16T11:27:06.985Z,15.65
2023-05-16T11:29:35.036Z,15.51
2023-05-16T11:32:03.932Z,15.40
2023-05-16T11:34:31.652Z,15.25
2023-05-16T11:37:00.161Z,15.00
2023-05-16T11:39:26.711Z,14.84
2023-05-16T11:41:56.300Z,14.74
2023-05-16T11:44:22.873Z,14.65
2023-05-16T11:46:49.505Z,14.66
2023-05-16T11:49:16.023Z,14.59
2023-05-16T11:51:43.488Z,14.64
2023-05-16T11:54:10.543Z,14.53
2023-05-16T11:56:37.272Z,14.42
2023-05-16T11:59:04.462Z,14.53
2023-05-16T12:01:39.071Z,14.51
2023-05-16T12:04:10.223Z,14.32
2023-05-16T12:06:37.637Z,14.40
2023-05-16T12:09:10.525Z,14.44
2023-05-16T12:11:44.527Z,14.64
2023-05-16T12:14:13.016Z,14.72
2023-05-16T12:16:42.416Z,14.91
2023-05-16T12:19:09.644Z,14.90
2023-05-16T12:21:36.301Z,14.97
2023-05-16T12:24:03.044Z,15.04
2023-05-16T12:26:32.178Z,14.93
2023-05-16T12:29:04.059Z,14.79
2023-05-16T12:31:32.703Z,14.66
2023-05-16T12:33:59.610Z,14.66
2023-05-16T12:36:26.379Z,14.64
2023-05-16T12:38:53.659Z,14.56
2023-05-16T12:41:21.758Z,14.54
2023-05-16T12:43:49.094Z,14.46
2023-05-16T12:46:16.341Z,14.55
2023-05-16T12:48:44.073Z,14.65
2023-05-16T12:51:11.682Z,15.01
2023-05-16T12:53:57.798Z,15.05
2023-05-16T12:56:32.536Z,14.84
2023-05-16T12:58:58.987Z,14.72
2023-05-16T13:01:25.548Z,14.64
2023-05-16T13:03:52.352Z,14.58
2023-05-16T13:06:18.887Z,14.54
2023-05-16T13:08:46.117Z,14.48
2023-05-16T13:11:12.542Z,14.39
2023-05-16T13:13:39.093Z,14.38
2023-05-16T13:16:05.841Z,14.34
2023-05-16T13:18:32.431Z,14.65
2023-05-16T13:20:58.890Z,14.94
2023-05-16T13:23:25.402Z,14.83
2023-05-16T13:25:53.051Z,14.73
2023-05-16T13:28:19.543Z,14.37
2023-05-16T13:30:46.041Z,14.26
2023-05-16T13:33:12.717Z,14.20
2023-05-16T13:35:39.365Z,14.06
2023-05-16T13:38:05.835Z,13.97
2023-05-16T13:40:32.807Z,14.06
2023-05-16T13:43:00.943Z,14.06
2023-05-16T13:45:28.514Z,14.01
2023-05-16T13:47:55.193Z,14.06
2023-05-16T13:50:21.727Z,14.45
2023-05-16T13:52:48.778Z,15.01
2023-05-16T13:55:15.424Z,14.80
2023-05-16T13:57:41.897Z,14.54
2023-05-16T14:02:42.942Z,14.32
2023-05-16T14:05:10.236Z,14.36
2023-05-16T14:07:36.833Z,14.33
2023-05-16T14:10:04.183Z,14.26
2023-05-16T14:12:31.396Z,14.08
2023-05-16T14:14:57.847Z,14.01
2023-05-16T14:17:24.313Z,14.02
2023-05-16T14:19:51.081Z,14.00
2023-05-16T14:22:18.875Z,14.05
2023-05-16T14:24:45.397Z,14.05
2023-05-16T14:27:12.186Z,14.04
2023-05-16T14:29:38.687Z,14.22
2023-05-16T14:32:05.534Z,14.23
2023-05-16T14:34:32.718Z,14.22
2023-05-16T14:36:59.271Z,14.31
2023-05-16T14:39:27.045Z,14.31
2023-05-16T14:41:53.529Z,14.28
2023-05-16T14:44:21.720Z,14.18
2023-05-16T14:46:48.329Z,14.17
2023-05-16T14:49:15.101Z,14.12
2023-05-16T14:51:41.566Z,14.07
2023-05-16T14:54:08.488Z,14.14
2023-05-16T14:56:34.997Z,14.22
2023-05-16T14:59:01.688Z,14.15
2023-05-16T15:01:28.184Z,14.22
2023-05-16T15:03:56.274Z,14.14
2023-05-16T15:06:24.538Z,14.10
2023-05-16T15:08:51.447Z,14.17
2023-05-16T15:11:17.961Z,14.23
2023-05-16T15:13:44.503Z,14.25
2023-05-16T15:16:12.174Z,14.33
2023-05-16T15:18:38.737Z,14.48
2023-05-16T15:21:06.354Z,14.63
2023-05-16T15:23:33.145Z,14.63
2023-05-16T15:25:59.630Z,14.65
2023-05-16T15:28:26.112Z,14.63
2023-05-16T15:30:52.600Z,14.55
2023-05-16T15:33:19.043Z,14.45
2023-05-16T15:35:45.591Z,14.49
2023-05-16T15:38:12.205Z,14.51
2023-05-16T15:40:40.260Z,14.49
2023-05-16T15:43:07.047Z,14.43
2023-05-16T15:45:33.839Z,14.48
2023-05-16T15:48:00.399Z,14.40
2023-05-16T15:50:27.001Z,14.36
2023-05-16T15:52:53.601Z,14.32
2023-05-16T15:55:20.043Z,14.28
2023-05-16T15:57:46.537Z,14.24
2023-05-16T16:00:13.638Z,14.21
2023-05-16T16:02:41.452Z,14.09
2023-05-16T16:05:08.278Z,13.92
2023-05-16T16:07:34.945Z,13.87
2023-05-16T16:10:01.469Z,13.76
2023-05-16T16:12:31.859Z,13.68
2023-05-16T16:14:58.439Z,13.67
2023-05-16T16:17:24.925Z,13.67
2023-05-16T16:19:51.510Z,13.57
2023-05-16T16:22:19.107Z,13.46
2023-05-16T16:24:46.786Z,13.41
2023-05-16T16:27:13.213Z,13.41
2023-05-16T16:29:39.689Z,13.40
2023-05-16T16:32:06.756Z,13.34
2023-05-16T16:34:33.305Z,13.27
2023-05-16T16:36:59.854Z,13.15
2023-05-16T16:39:26.606Z,13.00
2023-05-16T16:41:53.100Z,12.96
2023-05-16T16:44:20.120Z,12.84
2023-05-16T16:46:46.657Z,12.76
2023-05-16T16:49:13.196Z,12.78
2023-05-16T16:51:40.306Z,12.74
2023-05-16T16:54:07.158Z,12.77
2023-05-16T16:56:34.510Z,12.96
2023-05-16T16:59:00.982Z,13.30
2023-05-16T17:01:29.994Z,13.20
2023-05-16T17:03:56.880Z,13.16
2023-05-16T17:06:23.706Z,13.17
2023-05-16T17:08:50.114Z,13.13
2023-05-16T17:11:22.844Z,13.05
2023-05-16T17:13:50.091Z,13.02
2023-05-16T17:16:16.883Z,12.91
2023-05-16T17:18:43.475Z,12.91
2023-05-16T17:21:12.839Z,12.95
2023-05-16T17:23:40.693Z,12.91
2023-05-16T17:26:09.112Z,12.93
2023-05-16T17:28:35.552Z,12.97
2023-05-16T17:31:02.918Z,12.91
2023-05-16T17:33:29.388Z,12.83
2023-05-16T17:35:56.305Z,12.80
2023-05-16T17:38:22.823Z,12.84
2023-05-16T17:40:49.286Z,12.92
2023-05-16T17:43:15.706Z,12.87
2023-05-16T17:45:42.204Z,12.78
2023-05-16T17:48:08.722Z,12.76
2023-05-16T17:50:35.956Z,12.74
2023-05-16T17:53:02.442Z,12.76
2023-05-16T17:55:28.977Z,12.82
2023-05-16T17:57:55.614Z,12.86
2023-05-16T18:00:22.843Z,12.83
2023-05-16T18:02:49.763Z,12.85
2023-05-16T18:05:16.561Z,12.90
2023-05-16T18:07:43.167Z,12.96
2023-05-16T18:10:11.340Z,13.01
2023-05-16T18:12:38.853Z,13.01
2023-05-16T18:15:06.378Z,12.92
2023-05-16T18:17:36.667Z,12.91
2023-05-16T18:20:09.519Z,12.86
2023-05-16T18:22:37.042Z,12.75
2023-05-16T18:25:06.141Z,12.71
2023-05-16T18:27:33.559Z,12.72
2023-05-16T18:30:00.958Z,12.70
2023-05-16T18:32:27.736Z,12.71
2023-05-16T18:34:54.325Z,12.71
2023-05-16T18:37:23.016Z,12.69
2023-05-16T18:39:49.583Z,12.68
2023-05-16T18:42:17.357Z,12.64
2023-05-16T18:44:44.641Z,12.51
2023-05-16T18:47:11.643Z,12.41
2023-05-16T18:49:39.271Z,12.35
2023-05-16T18:52:08.126Z,12.29
2023-05-16T18:54:36.228Z,12.22
2023-05-16T18:57:04.368Z,12.14
2023-05-16T18:59:31.786Z,12.10
2023-05-16T19:01:58.786Z,12.04
2023-05-16T19:04:25.760Z,12.01
2023-05-16T19:06:56.141Z,11.94
2023-05-16T19:09:23.617Z,11.87
2023-05-16T19:11:50.029Z,11.80
2023-05-16T19:14:16.837Z,11.73
2023-05-16T19:16:43.237Z,11.67
2023-05-16T19:19:09.950Z,11.61
2023-05-16T19:21:36.621Z,11.53
2023-05-16T19:24:03.627Z,11.49
2023-05-16T19:26:30.957Z,11.43
2023-05-16T19:28:57.434Z,11.39
2023-05-16T19:31:23.954Z,11.34
2023-05-16T19:33:50.528Z,11.32
2023-05-16T19:36:17.723Z,11.28
2023-05-16T19:38:44.170Z,11.26
2023-05-16T19:41:10.644Z,11.21
2023-05-16T19:43:37.052Z,11.13
2023-05-16T19:46:03.582Z,11.08
2023-05-16T19:48:30.427Z,11.02
2023-05-16T19:50:57.083Z,10.97
2023-05-16T19:53:23.899Z,10.88
2023-05-16T19:55:50.569Z,10.80
2023-05-16T19:58:17.135Z,10.76
2023-05-16T20:00:43.655Z,10.74
2023-05-16T20:03:10.308Z,10.70
2023-05-16T20:05:36.832Z,10.65
2023-05-16T20:08:03.326Z,10.65
2023-05-16T20:10:30.694Z,10.60
2023-05-16T20:12:57.211Z,10.60
2023-05-16T20:15:23.877Z,10.63
2023-05-16T20:17:50.445Z,10.63
2023-05-16T20:20:17.091Z,10.60
2023-05-16T20:22:43.603Z,10.61
2023-05-16T20:25:10.746Z,10.60
2023-05-16T20:27:37.751Z,10.58
2023-05-16T20:30:06.451Z,10.56
2023-05-16T20:32:33.449Z,10.53
2023-05-16T20:35:01.142Z,10.48
2023-05-16T20:37:27.637Z,10.44
2023-05-16T20:39:54.557Z,10.38
2023-05-16T20:42:21.874Z,10.33
2023-05-16T20:44:48.440Z,10.32
2023-05-16T20:47:14.974Z,10.28
2023-05-16T20:49:41.497Z,10.22
2023-05-16T20:52:08.064Z,10.16
2023-05-16T20:54:34.987Z,10.12
2023-05-16T20:57:02.499Z,10.08
2023-05-16T20:59:28.960Z,10.06
2023-05-16T21:01:57.331Z,10.03
2023-05-16T21:04:24.864Z,10.00
2023-05-16T21:06:51.600Z,9.94
2023-05-16T21:09:18.024Z,9.89
2023-05-16T21:11:44.534Z,9.88
2023-05-16T21:14:11.035Z,9.84
2023-05-16T21:16:37.555Z,9.82
2023-05-16T21:19:04.375Z,9.76
2023-05-16T21:21:31.698Z,9.74
2023-05-16T21:23:58.211Z,9.69
2023-05-16T21:26:24.950Z,9.63
2023-05-16T21:28:55.474Z,9.57
2023-05-16T21:31:22.805Z,9.55
2023-05-16T21:33:51.935Z,9.52
2023-05-16T21:36:22.597Z,9.50
2023-05-16T21:38:49.120Z,9.45
2023-05-16T21:41:15.767Z,9.42
2023-05-16T21:43:42.216Z,9.40
2023-05-16T21:46:08.670Z,9.34
2023-05-16T21:48:35.407Z,9.31
2023-05-16T21:51:02.231Z,9.26
2023-05-16T21:53:28.743Z,9.23
2023-05-16T21:55:55.330Z,9.21
2023-05-16T21:58:22.111Z,9.16
2023-05-16T22:00:49.611Z,9.11
2023-05-16T22:03:18.969Z,9.06
2023-05-16T22:05:48.464Z,8.98
2023-05-16T22:08:15.109Z,8.93
2023-05-16T22:10:41.622Z,8.86
2023-05-16T22:13:08.179Z,8.81
2023-05-16T22:15:34.856Z,8.81
2023-05-16T22:18:02.100Z,8.77
2023-05-16T22:20:29.769Z,8.73
2023-05-16T22:22:56.514Z,8.72
2023-05-16T22:25:23.431Z,8.71
2023-05-16T22:27:49.849Z,8.69
2023-05-16T22:30:16.364Z,8.66
2023-05-16T22:32:43.141Z,8.63
2023-05-16T22:35:09.930Z,8.61
2023-05-16T22:37:36.418Z,8.56
2023-05-16T22:40:02.891Z,8.55
2023-05-16T22:42:31.589Z,8.51
2023-05-16T22:44:58.085Z,8.48
2023-05-16T22:47:24.495Z,8.48
2023-05-16T22:49:51.087Z,8.45
2023-05-16T22:52:17.526Z,8.44
2023-05-16T22:54:44.008Z,8.42
2023-05-16T22:57:10.510Z,8.37
2023-05-16T22:59:36.956Z,8.33
2023-05-16T23:02:03.417Z,8.29
2023-05-16T23:04:29.888Z,8.26
2023-05-16T23:06:56.369Z,8.25
2023-05-16T23:09:23.424Z,8.24
2023-05-16T23:11:49.921Z,8.21
2023-05-16T23:14:16.447Z,8.19
2023-05-16T23:16:42.875Z,8.15
2023-05-16T23:19:09.729Z,8.15
2023-05-16T23:21:36.524Z,8.14
2023-05-16T23:24:03.000Z,8.12
2023-05-16T23:26:29.501Z,8.10
2023-05-16T23:28:55.942Z,8.06
2023-05-16T23:31:22.651Z,8.07
2023-05-16T23:33:49.321Z,8.03
2023-05-16T23:36:15.775Z,8.00
2023-05-16T23:38:42.272Z,7.99
2023-05-16T23:41:08.741Z,7.98
2023-05-16T23:43:35.294Z,7.97
2023-05-16T23:46:01.852Z,7.96
2023-05-16T23:48:28.471Z,7.95
2023-05-16T23:50:55.050Z,7.92
2023-05-16T23:53:21.568Z,7.92
2023-05-16T23:55:48.088Z,7.87
2023-05-16T23:58:14.492Z,7.84
